Collison, IL

9:36 AM CDT on April 25, 2015 (GMT -0500)
Danville | | Change Station
CLOSE
Current Station
Airport
Location: Danville,
Elevation: 696 ft
Nearby Weather Stations

Elev 696 ft 40.20 °N, 87.59 °W | Updated 21 minutes ago

Rain
Rain
49 °F
Feels Like 49 °F
N
12
Wind Variable Wind from East
Gusts 22 mph

Today
High -- | Low -- °F
--% Chance of Precip.
Yesterday
High -- | Low -- °F
Precip. -- in
5:59 AM 7:40 PM
Waxing Crescent, 46% visible
Pressure 29.63 in
Visibility 5.0 miles
Clouds Scattered Clouds 1300 ft
Overcast 2500 ft
Dew Point 47 °F
Humidity 92%
Rainfall 0.36 in
Snow Depth Not available.
UV 1 out of 12
Pollen 10.00 out of 12
Air Quality Not available.
Flu Activity Regional
METAR KDNV 251415Z AUTO 10010G19KT 5SM RA SCT013 OVC025 09/08 A2963 RMK AO2 P0004 T00930081

More Conditions Fewer Conditions

Pressure 29.63 in
Visibility 5.0 miles
Clouds Scattered Clouds 1300 ft
Overcast 2500 ft
Dew Point 47 °F
Humidity 92%
Rainfall 0.36 in
Snow Depth Not available.
UV 1 out of 12
Pollen 10.00 out of 12
Air Quality Not available.
Flu Activity Regional
METAR KDNV 251415Z AUTO 10010G19KT 5SM RA SCT013 OVC025 09/08 A2963 RMK AO2 P0004 T00930081

More Conditions Fewer Conditions

10-Day Weather Forecast

Almanac

Astronomy

Apr. 25, 2015 Rise Set
Actual Time
Civil Twilight
Nautical Twilight
Astronomical Twilight
Moon
Length of Visible Light
Length of Day
Tomorrow will be .
, % of the Moon is Illuminated

Today's Extremes

State Highs State Lows

Community

WunderPhotos

Upload Photos

1,816,688 photos uploaded!

WunderBlogs® & News

Nearby

Air Quality

  Air Quality AQ Index Pollutant
Not available.

Snow Depth

Station Depth Elevation

Earthquake Activity

City Distance Mag. Time & Date
Minimum magnitude displayed is 2.5.

Coastal Water Temperatures

Place Temperature

Stations

Nearby Weather Stations

Station Location Temp. Windchill Dew Point Humidity Wind Precip. Elev Updated Type